sensor_id;sensor_type;location;lat;lon;timestamp;P1;durP1;ratioP1;P2;durP2;ratioP2
4074;SDS011;2052;53.522;9.806;2023-07-20T00:01:31;3.30;;;2.90;;
4074;SDS011;2052;53.522;9.806;2023-07-20T00:03:58;7.70;;;3.83;;
4074;SDS011;2052;53.522;9.806;2023-07-20T00:06:26;6.40;;;4.20;;
4074;SDS011;2052;53.522;9.806;2023-07-20T00:08:52;4.40;;;3.70;;
4074;SDS011;2052;53.522;9.806;2023-07-20T00:11:25;5.27;;;3.37;;
4074;SDS011;2052;53.522;9.806;2023-07-20T00:13:52;4.67;;;3.40;;
4074;SDS011;2052;53.522;9.806;2023-07-20T00:16:19;5.97;;;3.43;;
4074;SDS011;2052;53.522;9.806;2023-07-20T00:18:47;3.90;;;3.07;;
4074;SDS011;2052;53.522;9.806;2023-07-20T00:21:15;4.40;;;3.10;;
4074;SDS011;2052;53.522;9.806;2023-07-20T00:23:43;4.93;;;3.27;;
4074;SDS011;2052;53.522;9.806;2023-07-20T00:26:10;4.40;;;3.70;;
4074;SDS011;2052;53.522;9.806;2023-07-20T00:28:39;5.77;;;2.90;;
4074;SDS011;2052;53.522;9.806;2023-07-20T00:31:05;4.23;;;3.27;;
4074;SDS011;2052;53.522;9.806;2023-07-20T00:33:32;6.13;;;3.60;;
4074;SDS011;2052;53.522;9.806;2023-07-20T00:35:58;4.90;;;3.47;;
4074;SDS011;2052;53.522;9.806;2023-07-20T00:38:25;5.80;;;3.50;;
4074;SDS011;2052;53.522;9.806;2023-07-20T00:40:53;6.53;;;3.40;;
4074;SDS011;2052;53.522;9.806;2023-07-20T00:43:20;9.03;;;4.70;;
4074;SDS011;2052;53.522;9.806;2023-07-20T00:45:48;3.53;;;3.23;;
4074;SDS011;2052;53.522;9.806;2023-07-20T00:48:17;5.23;;;3.77;;
4074;SDS011;2052;53.522;9.806;2023-07-20T00:50:43;6.47;;;4.07;;
4074;SDS011;2052;53.522;9.806;2023-07-20T00:53:10;3.93;;;3.53;;
4074;SDS011;2052;53.522;9.806;2023-07-20T00:55:37;7.47;;;4.27;;
4074;SDS011;2052;53.522;9.806;2023-07-20T00:58:05;5.20;;;4.43;;
4074;SDS011;2052;53.522;9.806;2023-07-20T01:00:32;5.27;;;3.90;;
4074;SDS011;2052;53.522;9.806;2023-07-20T01:02:58;8.73;;;4.43;;
4074;SDS011;2052;53.522;9.806;2023-07-20T01:05:28;5.90;;;4.60;;
4074;SDS011;2052;53.522;9.806;2023-07-20T01:08:02;6.80;;;4.20;;
4074;SDS011;2052;53.522;9.806;2023-07-20T01:10:33;5.10;;;4.60;;
4074;SDS011;2052;53.522;9.806;2023-07-20T01:13:02;8.83;;;4.90;;
4074;SDS011;2052;53.522;9.806;2023-07-20T01:15:31;12.43;;;4.30;;
4074;SDS011;2052;53.522;9.806;2023-07-20T01:18:00;7.10;;;4.90;;
4074;SDS011;2052;53.522;9.806;2023-07-20T01:20:29;8.03;;;4.70;;
4074;SDS011;2052;53.522;9.806;2023-07-20T01:23:04;7.43;;;4.50;;
4074;SDS011;2052;53.522;9.806;2023-07-20T01:25:54;6.30;;;4.90;;
4074;SDS011;2052;53.522;9.806;2023-07-20T01:28:35;7.83;;;5.10;;
4074;SDS011;2052;53.522;9.806;2023-07-20T01:31:14;7.27;;;4.97;;
4074;SDS011;2052;53.522;9.806;2023-07-20T01:33:43;6.20;;;4.70;;
4074;SDS011;2052;53.522;9.806;2023-07-20T01:36:10;6.80;;;5.50;;
4074;SDS011;2052;53.522;9.806;2023-07-20T01:38:37;6.20;;;5.27;;
4074;SDS011;2052;53.522;9.806;2023-07-20T01:41:04;8.20;;;5.33;;
4074;SDS011;2052;53.522;9.806;2023-07-20T01:43:33;7.27;;;5.23;;
4074;SDS011;2052;53.522;9.806;2023-07-20T01:46:00;6.73;;;5.03;;
4074;SDS011;2052;53.522;9.806;2023-07-20T01:48:28;7.43;;;5.53;;
4074;SDS011;2052;53.522;9.806;2023-07-20T01:50:54;10.07;;;5.80;;
4074;SDS011;2052;53.522;9.806;2023-07-20T01:53:22;11.30;;;5.93;;
4074;SDS011;2052;53.522;9.806;2023-07-20T01:55:48;8.60;;;6.10;;
4074;SDS011;2052;53.522;9.806;2023-07-20T01:58:15;8.90;;;5.50;;
4074;SDS011;2052;53.522;9.806;2023-07-20T02:00:41;9.60;;;5.77;;
4074;SDS011;2052;53.522;9.806;2023-07-20T02:03:08;8.20;;;6.30;;
4074;SDS011;2052;53.522;9.806;2023-07-20T02:05:38;8.30;;;6.10;;
4074;SDS011;2052;53.522;9.806;2023-07-20T02:08:07;8.17;;;5.70;;
4074;SDS011;2052;53.522;9.806;2023-07-20T02:10:34;8.60;;;5.90;;
4074;SDS011;2052;53.522;9.806;2023-07-20T02:13:01;8.30;;;5.30;;
4074;SDS011;2052;53.522;9.806;2023-07-20T02:15:27;7.53;;;5.47;;
4074;SDS011;2052;53.522;9.806;2023-07-20T02:17:54;8.53;;;5.70;;
4074;SDS011;2052;53.522;9.806;2023-07-20T02:20:21;5.90;;;5.27;;
4074;SDS011;2052;53.522;9.806;2023-07-20T02:22:51;8.27;;;5.17;;
4074;SDS011;2052;53.522;9.806;2023-07-20T02:25:18;5.87;;;4.53;;
4074;SDS011;2052;53.522;9.806;2023-07-20T02:27:45;5.60;;;4.47;;
4074;SDS011;2052;53.522;9.806;2023-07-20T02:30:12;6.33;;;4.90;;
4074;SDS011;2052;53.522;9.806;2023-07-20T02:32:38;5.70;;;4.13;;
4074;SDS011;2052;53.522;9.806;2023-07-20T02:35:06;8.70;;;4.13;;
4074;SDS011;2052;53.522;9.806;2023-07-20T02:37:33;9.93;;;4.40;;
4074;SDS011;2052;53.522;9.806;2023-07-20T02:40:01;6.23;;;4.13;;
4074;SDS011;2052;53.522;9.806;2023-07-20T02:42:29;6.67;;;4.23;;
4074;SDS011;2052;53.522;9.806;2023-07-20T02:44:55;9.50;;;4.70;;
4074;SDS011;2052;53.522;9.806;2023-07-20T02:47:22;4.97;;;4.30;;
4074;SDS011;2052;53.522;9.806;2023-07-20T02:49:48;5.43;;;3.60;;
4074;SDS011;2052;53.522;9.806;2023-07-20T02:52:15;4.60;;;3.77;;
4074;SDS011;2052;53.522;9.806;2023-07-20T02:54:43;8.10;;;4.03;;
4074;SDS011;2052;53.522;9.806;2023-07-20T02:57:11;4.73;;;3.67;;
4074;SDS011;2052;53.522;9.806;2023-07-20T02:59:38;4.80;;;4.10;;
4074;SDS011;2052;53.522;9.806;2023-07-20T03:02:04;7.80;;;5.30;;
4074;SDS011;2052;53.522;9.806;2023-07-20T03:04:34;4.90;;;4.07;;
4074;SDS011;2052;53.522;9.806;2023-07-20T03:07:02;6.23;;;3.90;;
4074;SDS011;2052;53.522;9.806;2023-07-20T03:09:28;4.50;;;3.87;;
4074;SDS011;2052;53.522;9.806;2023-07-20T03:11:56;4.17;;;3.53;;
4074;SDS011;2052;53.522;9.806;2023-07-20T03:14:24;5.03;;;3.83;;
4074;SDS011;2052;53.522;9.806;2023-07-20T03:16:51;5.73;;;4.30;;
4074;SDS011;2052;53.522;9.806;2023-07-20T03:19:18;3.50;;;3.17;;
4074;SDS011;2052;53.522;9.806;2023-07-20T03:21:44;4.30;;;3.20;;
4074;SDS011;2052;53.522;9.806;2023-07-20T03:24:12;4.50;;;3.80;;
4074;SDS011;2052;53.522;9.806;2023-07-20T03:26:38;6.07;;;3.83;;
4074;SDS011;2052;53.522;9.806;2023-07-20T03:29:05;5.10;;;3.53;;
4074;SDS011;2052;53.522;9.806;2023-07-20T03:31:33;4.40;;;3.43;;
4074;SDS011;2052;53.522;9.806;2023-07-20T03:33:59;7.67;;;4.40;;
4074;SDS011;2052;53.522;9.806;2023-07-20T03:36:26;5.17;;;3.60;;
4074;SDS011;2052;53.522;9.806;2023-07-20T03:38:53;6.60;;;4.30;;
4074;SDS011;2052;53.522;9.806;2023-07-20T03:41:19;6.17;;;4.10;;
4074;SDS011;2052;53.522;9.806;2023-07-20T03:43:46;4.93;;;4.20;;
4074;SDS011;2052;53.522;9.806;2023-07-20T03:46:13;5.30;;;4.20;;
4074;SDS011;2052;53.522;9.806;2023-07-20T03:48:42;9.30;;;4.40;;
4074;SDS011;2052;53.522;9.806;2023-07-20T03:51:08;5.40;;;3.87;;
4074;SDS011;2052;53.522;9.806;2023-07-20T03:53:35;8.77;;;4.40;;
4074;SDS011;2052;53.522;9.806;2023-07-20T03:56:01;6.70;;;3.60;;
4074;SDS011;2052;53.522;9.806;2023-07-20T03:58:28;5.17;;;3.80;;
4074;SDS011;2052;53.522;9.806;2023-07-20T04:00:55;4.10;;;3.47;;
4074;SDS011;2052;53.522;9.806;2023-07-20T04:03:21;4.50;;;4.00;;
4074;SDS011;2052;53.522;9.806;2023-07-20T04:05:51;8.27;;;3.97;;
4074;SDS011;2052;53.522;9.806;2023-07-20T04:08:19;5.87;;;4.43;;
4074;SDS011;2052;53.522;9.806;2023-07-20T04:10:46;6.43;;;4.40;;
4074;SDS011;2052;53.522;9.806;2023-07-20T04:13:12;6.73;;;4.90;;
4074;SDS011;2052;53.522;9.806;2023-07-20T04:15:39;4.30;;;3.90;;
4074;SDS011;2052;53.522;9.806;2023-07-20T04:18:05;5.53;;;3.87;;
4074;SDS011;2052;53.522;9.806;2023-07-20T04:20:32;6.13;;;4.60;;
4074;SDS011;2052;53.522;9.806;2023-07-20T04:23:00;6.87;;;4.60;;
4074;SDS011;2052;53.522;9.806;2023-07-20T04:25:26;6.47;;;4.50;;
4074;SDS011;2052;53.522;9.806;2023-07-20T04:27:53;8.07;;;4.83;;
4074;SDS011;2052;53.522;9.806;2023-07-20T04:30:20;6.60;;;4.67;;
4074;SDS011;2052;53.522;9.806;2023-07-20T04:32:47;7.00;;;4.80;;
4074;SDS011;2052;53.522;9.806;2023-07-20T04:35:17;8.87;;;7.20;;
4074;SDS011;2052;53.522;9.806;2023-07-20T04:37:47;10.63;;;5.73;;
4074;SDS011;2052;53.522;9.806;2023-07-20T04:40:17;7.63;;;6.10;;
4074;SDS011;2052;53.522;9.806;2023-07-20T04:42:43;8.20;;;5.93;;
4074;SDS011;2052;53.522;9.806;2023-07-20T04:45:12;8.60;;;6.37;;
4074;SDS011;2052;53.522;9.806;2023-07-20T04:47:39;12.63;;;6.80;;
4074;SDS011;2052;53.522;9.806;2023-07-20T04:50:06;8.07;;;5.33;;
4074;SDS011;2052;53.522;9.806;2023-07-20T04:52:33;6.93;;;5.43;;
4074;SDS011;2052;53.522;9.806;2023-07-20T04:55:00;8.37;;;5.70;;
4074;SDS011;2052;53.522;9.806;2023-07-20T04:57:31;8.13;;;5.40;;
4074;SDS011;2052;53.522;9.806;2023-07-20T04:59:57;5.30;;;4.57;;
4074;SDS011;2052;53.522;9.806;2023-07-20T05:02:25;5.90;;;3.83;;
4074;SDS011;2052;53.522;9.806;2023-07-20T05:04:52;5.40;;;3.97;;
4074;SDS011;2052;53.522;9.806;2023-07-20T05:07:20;4.30;;;3.70;;
4074;SDS011;2052;53.522;9.806;2023-07-20T05:09:48;4.00;;;3.07;;
4074;SDS011;2052;53.522;9.806;2023-07-20T05:12:15;6.97;;;3.07;;
4074;SDS011;2052;53.522;9.806;2023-07-20T05:14:44;4.30;;;3.33;;
4074;SDS011;2052;53.522;9.806;2023-07-20T05:17:11;3.20;;;2.90;;
4074;SDS011;2052;53.522;9.806;2023-07-20T05:19:37;3.60;;;2.60;;
4074;SDS011;2052;53.522;9.806;2023-07-20T05:22:04;3.93;;;2.40;;
4074;SDS011;2052;53.522;9.806;2023-07-20T05:24:30;3.90;;;3.10;;
4074;SDS011;2052;53.522;9.806;2023-07-20T05:26:57;3.40;;;3.10;;
4074;SDS011;2052;53.522;9.806;2023-07-20T05:29:24;4.13;;;2.67;;
4074;SDS011;2052;53.522;9.806;2023-07-20T05:31:52;2.83;;;2.57;;
4074;SDS011;2052;53.522;9.806;2023-07-20T05:34:19;3.20;;;2.80;;
4074;SDS011;2052;53.522;9.806;2023-07-20T05:36:46;3.73;;;2.63;;
4074;SDS011;2052;53.522;9.806;2023-07-20T05:39:12;2.40;;;1.80;;
4074;SDS011;2052;53.522;9.806;2023-07-20T05:41:39;6.53;;;2.17;;
4074;SDS011;2052;53.522;9.806;2023-07-20T05:44:06;2.17;;;2.00;;
4074;SDS011;2052;53.522;9.806;2023-07-20T05:46:33;2.30;;;2.10;;
4074;SDS011;2052;53.522;9.806;2023-07-20T05:49:02;4.60;;;2.10;;
4074;SDS011;2052;53.522;9.806;2023-07-20T05:51:28;2.30;;;1.90;;
4074;SDS011;2052;53.522;9.806;2023-07-20T05:53:55;2.27;;;2.07;;
4074;SDS011;2052;53.522;9.806;2023-07-20T05:56:21;9.80;;;6.50;;
4074;SDS011;2052;53.522;9.806;2023-07-20T05:58:48;5.53;;;3.57;;
4074;SDS011;2052;53.522;9.806;2023-07-20T06:01:15;1.60;;;1.47;;
4074;SDS011;2052;53.522;9.806;2023-07-20T06:03:43;1.40;;;1.27;;
4074;SDS011;2052;53.522;9.806;2023-07-20T06:06:13;3.03;;;1.53;;
4074;SDS011;2052;53.522;9.806;2023-07-20T06:08:40;1.90;;;1.30;;
4074;SDS011;2052;53.522;9.806;2023-07-20T06:11:08;1.57;;;1.50;;
4074;SDS011;2052;53.522;9.806;2023-07-20T06:13:34;1.40;;;1.30;;
4074;SDS011;2052;53.522;9.806;2023-07-20T06:16:01;2.60;;;1.47;;
4074;SDS011;2052;53.522;9.806;2023-07-20T06:18:28;1.27;;;0.90;;
4074;SDS011;2052;53.522;9.806;2023-07-20T06:20:55;4.83;;;1.30;;
4074;SDS011;2052;53.522;9.806;2023-07-20T06:23:23;3.60;;;1.90;;
4074;SDS011;2052;53.522;9.806;2023-07-20T06:25:50;1.20;;;1.00;;
4074;SDS011;2052;53.522;9.806;2023-07-20T06:28:16;0.70;;;0.70;;
4074;SDS011;2052;53.522;9.806;2023-07-20T06:30:43;2.20;;;0.70;;
4074;SDS011;2052;53.522;9.806;2023-07-20T06:33:10;1.63;;;0.87;;
4074;SDS011;2052;53.522;9.806;2023-07-20T06:35:36;0.70;;;0.70;;
4074;SDS011;2052;53.522;9.806;2023-07-20T06:38:04;1.13;;;1.00;;
4074;SDS011;2052;53.522;9.806;2023-07-20T06:40:32;2.60;;;1.10;;
4074;SDS011;2052;53.522;9.806;2023-07-20T06:43:00;3.17;;;1.30;;
4074;SDS011;2052;53.522;9.806;2023-07-20T06:45:27;6.60;;;1.17;;
4074;SDS011;2052;53.522;9.806;2023-07-20T06:47:54;1.90;;;1.13;;
4074;SDS011;2052;53.522;9.806;2023-07-20T06:50:20;2.30;;;1.20;;
4074;SDS011;2052;53.522;9.806;2023-07-20T06:52:47;2.90;;;0.90;;
4074;SDS011;2052;53.522;9.806;2023-07-20T06:55:14;1.63;;;0.80;;
4074;SDS011;2052;53.522;9.806;2023-07-20T06:57:43;4.20;;;1.27;;
4074;SDS011;2052;53.522;9.806;2023-07-20T07:00:11;1.73;;;1.00;;
4074;SDS011;2052;53.522;9.806;2023-07-20T07:02:39;1.10;;;0.80;;
4074;SDS011;2052;53.522;9.806;2023-07-20T07:05:06;3.17;;;1.10;;
4074;SDS011;2052;53.522;9.806;2023-07-20T07:07:33;1.60;;;0.87;;
4074;SDS011;2052;53.522;9.806;2023-07-20T07:09:59;3.13;;;1.00;;
4074;SDS011;2052;53.522;9.806;2023-07-20T07:12:26;2.50;;;1.70;;
4074;SDS011;2052;53.522;9.806;2023-07-20T07:14:55;2.77;;;0.80;;
4074;SDS011;2052;53.522;9.806;2023-07-20T07:17:21;1.00;;;0.80;;
4074;SDS011;2052;53.522;9.806;2023-07-20T07:19:57;2.30;;;1.00;;
4074;SDS011;2052;53.522;9.806;2023-07-20T07:22:23;3.87;;;1.10;;
4074;SDS011;2052;53.522;9.806;2023-07-20T07:24:51;1.23;;;1.07;;
4074;SDS011;2052;53.522;9.806;2023-07-20T07:27:20;3.90;;;1.47;;
4074;SDS011;2052;53.522;9.806;2023-07-20T07:29:47;3.03;;;1.00;;
4074;SDS011;2052;53.522;9.806;2023-07-20T07:32:16;2.37;;;1.00;;
4074;SDS011;2052;53.522;9.806;2023-07-20T07:34:43;3.10;;;0.90;;
4074;SDS011;2052;53.522;9.806;2023-07-20T07:37:12;2.90;;;1.00;;
4074;SDS011;2052;53.522;9.806;2023-07-20T07:39:39;3.60;;;1.03;;
4074;SDS011;2052;53.522;9.806;2023-07-20T07:42:07;2.50;;;1.47;;
4074;SDS011;2052;53.522;9.806;2023-07-20T07:44:34;3.63;;;1.20;;
4074;SDS011;2052;53.522;9.806;2023-07-20T07:47:00;1.57;;;0.70;;
4074;SDS011;2052;53.522;9.806;2023-07-20T07:49:28;1.70;;;0.90;;
4074;SDS011;2052;53.522;9.806;2023-07-20T07:51:56;2.03;;;1.27;;
4074;SDS011;2052;53.522;9.806;2023-07-20T07:54:23;1.37;;;1.10;;
4074;SDS011;2052;53.522;9.806;2023-07-20T07:56:50;1.80;;;1.10;;
4074;SDS011;2052;53.522;9.806;2023-07-20T07:59:17;3.23;;;1.17;;
4074;SDS011;2052;53.522;9.806;2023-07-20T08:01:43;3.17;;;1.50;;
4074;SDS011;2052;53.522;9.806;2023-07-20T08:04:11;3.73;;;1.13;;
4074;SDS011;2052;53.522;9.806;2023-07-20T08:06:39;2.43;;;1.43;;
4074;SDS011;2052;53.522;9.806;2023-07-20T08:09:06;4.50;;;1.90;;
4074;SDS011;2052;53.522;9.806;2023-07-20T08:11:32;1.87;;;1.47;;
4074;SDS011;2052;53.522;9.806;2023-07-20T08:13:59;5.47;;;1.37;;
4074;SDS011;2052;53.522;9.806;2023-07-20T08:16:26;4.37;;;1.43;;
4074;SDS011;2052;53.522;9.806;2023-07-20T08:18:52;2.83;;;1.60;;
4074;SDS011;2052;53.522;9.806;2023-07-20T08:21:19;2.80;;;1.50;;
4074;SDS011;2052;53.522;9.806;2023-07-20T08:23:47;3.27;;;1.87;;
4074;SDS011;2052;53.522;9.806;2023-07-20T08:26:14;3.27;;;1.80;;
4074;SDS011;2052;53.522;9.806;2023-07-20T08:28:42;5.87;;;2.57;;
4074;SDS011;2052;53.522;9.806;2023-07-20T08:31:11;3.50;;;1.80;;
4074;SDS011;2052;53.522;9.806;2023-07-20T08:33:38;4.37;;;1.87;;
4074;SDS011;2052;53.522;9.806;2023-07-20T08:36:04;8.00;;;3.10;;
4074;SDS011;2052;53.522;9.806;2023-07-20T08:38:31;7.10;;;2.97;;
4074;SDS011;2052;53.522;9.806;2023-07-20T08:41:00;5.77;;;2.80;;
4074;SDS011;2052;53.522;9.806;2023-07-20T08:43:27;3.87;;;2.17;;
4074;SDS011;2052;53.522;9.806;2023-07-20T08:45:55;3.40;;;1.80;;
4074;SDS011;2052;53.522;9.806;2023-07-20T08:48:21;4.90;;;1.87;;
4074;SDS011;2052;53.522;9.806;2023-07-20T08:50:49;3.00;;;1.70;;
4074;SDS011;2052;53.522;9.806;2023-07-20T08:53:17;2.70;;;1.40;;
4074;SDS011;2052;53.522;9.806;2023-07-20T08:55:48;4.13;;;2.03;;
4074;SDS011;2052;53.522;9.806;2023-07-20T08:58:17;5.40;;;2.27;;
4074;SDS011;2052;53.522;9.806;2023-07-20T09:00:44;3.50;;;1.60;;
4074;SDS011;2052;53.522;9.806;2023-07-20T09:03:16;7.37;;;1.90;;
4074;SDS011;2052;53.522;9.806;2023-07-20T09:05:43;1.67;;;1.00;;
4074;SDS011;2052;53.522;9.806;2023-07-20T09:08:11;2.47;;;1.10;;
4074;SDS011;2052;53.522;9.806;2023-07-20T09:10:38;4.03;;;1.40;;
4074;SDS011;2052;53.522;9.806;2023-07-20T09:13:05;3.50;;;2.17;;
4074;SDS011;2052;53.522;9.806;2023-07-20T09:15:33;4.47;;;1.87;;
4074;SDS011;2052;53.522;9.806;2023-07-20T09:18:01;4.60;;;2.30;;
4074;SDS011;2052;53.522;9.806;2023-07-20T09:20:28;6.63;;;2.07;;
4074;SDS011;2052;53.522;9.806;2023-07-20T09:22:57;2.53;;;1.60;;
4074;SDS011;2052;53.522;9.806;2023-07-20T09:25:25;1.97;;;1.20;;
4074;SDS011;2052;53.522;9.806;2023-07-20T09:27:53;2.33;;;1.37;;
4074;SDS011;2052;53.522;9.806;2023-07-20T09:30:21;2.63;;;1.20;;
4074;SDS011;2052;53.522;9.806;2023-07-20T09:32:52;3.17;;;1.77;;
4074;SDS011;2052;53.522;9.806;2023-07-20T09:35:20;4.60;;;1.57;;
4074;SDS011;2052;53.522;9.806;2023-07-20T09:37:49;4.60;;;1.93;;
4074;SDS011;2052;53.522;9.806;2023-07-20T09:40:18;3.73;;;2.30;;
4074;SDS011;2052;53.522;9.806;2023-07-20T09:42:45;6.10;;;1.67;;
4074;SDS011;2052;53.522;9.806;2023-07-20T09:45:12;10.23;;;2.13;;
4074;SDS011;2052;53.522;9.806;2023-07-20T09:47:39;2.83;;;1.27;;
4074;SDS011;2052;53.522;9.806;2023-07-20T09:50:08;7.20;;;2.43;;
4074;SDS011;2052;53.522;9.806;2023-07-20T09:52:38;6.03;;;1.37;;
4074;SDS011;2052;53.522;9.806;2023-07-20T09:55:06;4.03;;;1.30;;
4074;SDS011;2052;53.522;9.806;2023-07-20T09:57:36;3.23;;;1.30;;
4074;SDS011;2052;53.522;9.806;2023-07-20T10:00:12;2.20;;;1.30;;
4074;SDS011;2052;53.522;9.806;2023-07-20T10:02:41;4.27;;;1.10;;
4074;SDS011;2052;53.522;9.806;2023-07-20T10:05:12;2.27;;;1.37;;
4074;SDS011;2052;53.522;9.806;2023-07-20T10:07:42;2.60;;;1.03;;
4074;SDS011;2052;53.522;9.806;2023-07-20T10:10:14;2.93;;;2.50;;
4074;SDS011;2052;53.522;9.806;2023-07-20T10:12:42;1.57;;;1.00;;
4074;SDS011;2052;53.522;9.806;2023-07-20T10:15:11;3.10;;;1.43;;
4074;SDS011;2052;53.522;9.806;2023-07-20T10:17:41;2.60;;;2.40;;
4074;SDS011;2052;53.522;9.806;2023-07-20T10:20:17;4.33;;;1.07;;
4074;SDS011;2052;53.522;9.806;2023-07-20T10:22:54;2.80;;;0.87;;
4074;SDS011;2052;53.522;9.806;2023-07-20T10:25:22;2.00;;;1.10;;
4074;SDS011;2052;53.522;9.806;2023-07-20T10:27:50;2.60;;;1.00;;
4074;SDS011;2052;53.522;9.806;2023-07-20T10:30:17;3.07;;;1.10;;
4074;SDS011;2052;53.522;9.806;2023-07-20T10:32:46;3.67;;;1.10;;
4074;SDS011;2052;53.522;9.806;2023-07-20T10:35:14;1.70;;;1.20;;
4074;SDS011;2052;53.522;9.806;2023-07-20T10:37:53;2.03;;;1.10;;
4074;SDS011;2052;53.522;9.806;2023-07-20T10:40:24;2.03;;;1.43;;
4074;SDS011;2052;53.522;9.806;2023-07-20T10:42:56;3.90;;;1.20;;
4074;SDS011;2052;53.522;9.806;2023-07-20T10:45:32;4.57;;;1.47;;
4074;SDS011;2052;53.522;9.806;2023-07-20T10:48:03;4.73;;;1.73;;
4074;SDS011;2052;53.522;9.806;2023-07-20T10:50:32;4.00;;;1.30;;
4074;SDS011;2052;53.522;9.806;2023-07-20T10:53:18;2.30;;;1.00;;
4074;SDS011;2052;53.522;9.806;2023-07-20T10:55:48;6.00;;;2.83;;
4074;SDS011;2052;53.522;9.806;2023-07-20T10:58:15;1.87;;;0.93;;
4074;SDS011;2052;53.522;9.806;2023-07-20T11:00:58;1.03;;;0.93;;
4074;SDS011;2052;53.522;9.806;2023-07-20T11:03:27;4.93;;;1.43;;
4074;SDS011;2052;53.522;9.806;2023-07-20T11:05:55;1.80;;;0.97;;
4074;SDS011;2052;53.522;9.806;2023-07-20T11:11:22;3.43;;;1.20;;
4074;SDS011;2052;53.522;9.806;2023-07-20T11:13:56;2.20;;;0.83;;
4074;SDS011;2052;53.522;9.806;2023-07-20T11:16:35;2.60;;;1.17;;
4074;SDS011;2052;53.522;9.806;2023-07-20T11:19:04;2.87;;;1.07;;
4074;SDS011;2052;53.522;9.806;2023-07-20T11:21:35;1.50;;;1.27;;
4074;SDS011;2052;53.522;9.806;2023-07-20T11:24:04;5.00;;;1.30;;
4074;SDS011;2052;53.522;9.806;2023-07-20T11:26:40;8.10;;;1.77;;
4074;SDS011;2052;53.522;9.806;2023-07-20T11:29:08;2.00;;;1.10;;
4074;SDS011;2052;53.522;9.806;2023-07-20T11:31:35;2.63;;;1.57;;
4074;SDS011;2052;53.522;9.806;2023-07-20T11:34:03;2.37;;;1.10;;
4074;SDS011;2052;53.522;9.806;2023-07-20T11:36:31;5.17;;;1.30;;
4074;SDS011;2052;53.522;9.806;2023-07-20T11:38:58;3.03;;;1.13;;
4074;SDS011;2052;53.522;9.806;2023-07-20T11:41:26;1.07;;;0.97;;
4074;SDS011;2052;53.522;9.806;2023-07-20T11:44:02;3.40;;;1.00;;
4074;SDS011;2052;53.522;9.806;2023-07-20T11:46:28;1.77;;;1.03;;
4074;SDS011;2052;53.522;9.806;2023-07-20T11:48:57;2.40;;;1.20;;
4074;SDS011;2052;53.522;9.806;2023-07-20T11:51:25;1.93;;;1.10;;
4074;SDS011;2052;53.522;9.806;2023-07-20T11:53:52;3.23;;;1.20;;
4074;SDS011;2052;53.522;9.806;2023-07-20T11:56:19;2.73;;;0.87;;
4074;SDS011;2052;53.522;9.806;2023-07-20T11:58:46;4.80;;;1.00;;
4074;SDS011;2052;53.522;9.806;2023-07-20T12:01:14;3.17;;;1.40;;
4074;SDS011;2052;53.522;9.806;2023-07-20T12:03:42;3.03;;;0.90;;
4074;SDS011;2052;53.522;9.806;2023-07-20T12:06:09;1.63;;;0.83;;
4074;SDS011;2052;53.522;9.806;2023-07-20T12:08:38;1.87;;;0.90;;
4074;SDS011;2052;53.522;9.806;2023-07-20T12:11:06;3.33;;;0.90;;
4074;SDS011;2052;53.522;9.806;2023-07-20T12:13:37;3.40;;;0.80;;
4074;SDS011;2052;53.522;9.806;2023-07-20T12:16:10;4.77;;;0.80;;
4074;SDS011;2052;53.522;9.806;2023-07-20T12:18:39;2.30;;;0.90;;
4074;SDS011;2052;53.522;9.806;2023-07-20T12:21:06;0.80;;;0.70;;
4074;SDS011;2052;53.522;9.806;2023-07-20T12:23:37;2.07;;;1.03;;
4074;SDS011;2052;53.522;9.806;2023-07-20T12:26:05;1.10;;;0.87;;
4074;SDS011;2052;53.522;9.806;2023-07-20T12:28:35;2.97;;;1.13;;
4074;SDS011;2052;53.522;9.806;2023-07-20T12:31:07;1.50;;;0.90;;
4074;SDS011;2052;53.522;9.806;2023-07-20T12:33:34;2.73;;;1.03;;
4074;SDS011;2052;53.522;9.806;2023-07-20T12:36:04;3.83;;;1.00;;
4074;SDS011;2052;53.522;9.806;2023-07-20T12:38:31;2.77;;;0.80;;
4074;SDS011;2052;53.522;9.806;2023-07-20T12:40:59;2.50;;;0.97;;
4074;SDS011;2052;53.522;9.806;2023-07-20T12:43:26;1.73;;;1.10;;
4074;SDS011;2052;53.522;9.806;2023-07-20T12:45:53;2.87;;;0.90;;
4074;SDS011;2052;53.522;9.806;2023-07-20T12:48:20;4.67;;;1.57;;
4074;SDS011;2052;53.522;9.806;2023-07-20T12:50:47;1.70;;;1.03;;
4074;SDS011;2052;53.522;9.806;2023-07-20T12:53:15;5.63;;;1.30;;
4074;SDS011;2052;53.522;9.806;2023-07-20T12:55:42;4.53;;;0.73;;
4074;SDS011;2052;53.522;9.806;2023-07-20T12:58:08;2.50;;;1.10;;
4074;SDS011;2052;53.522;9.806;2023-07-20T13:00:36;2.30;;;1.10;;
4074;SDS011;2052;53.522;9.806;2023-07-20T13:03:02;1.80;;;0.80;;
4074;SDS011;2052;53.522;9.806;2023-07-20T13:05:32;0.93;;;0.80;;
4074;SDS011;2052;53.522;9.806;2023-07-20T13:07:59;3.63;;;0.77;;
4074;SDS011;2052;53.522;9.806;2023-07-20T13:10:28;1.03;;;0.80;;
4074;SDS011;2052;53.522;9.806;2023-07-20T13:12:55;2.87;;;1.00;;
4074;SDS011;2052;53.522;9.806;2023-07-20T13:15:28;1.67;;;1.07;;
4074;SDS011;2052;53.522;9.806;2023-07-20T13:18:03;4.50;;;0.90;;
4074;SDS011;2052;53.522;9.806;2023-07-20T13:20:40;1.83;;;0.90;;
4074;SDS011;2052;53.522;9.806;2023-07-20T13:23:07;5.20;;;1.07;;
4074;SDS011;2052;53.522;9.806;2023-07-20T13:25:36;3.87;;;1.40;;
4074;SDS011;2052;53.522;9.806;2023-07-20T13:28:03;2.67;;;0.80;;
4074;SDS011;2052;53.522;9.806;2023-07-20T13:30:31;2.10;;;0.90;;
4074;SDS011;2052;53.522;9.806;2023-07-20T13:32:58;3.03;;;0.93;;
4074;SDS011;2052;53.522;9.806;2023-07-20T13:35:25;1.33;;;0.80;;
4074;SDS011;2052;53.522;9.806;2023-07-20T13:37:52;4.63;;;1.63;;
4074;SDS011;2052;53.522;9.806;2023-07-20T13:40:18;9.77;;;1.20;;
4074;SDS011;2052;53.522;9.806;2023-07-20T13:42:46;3.57;;;1.10;;
4074;SDS011;2052;53.522;9.806;2023-07-20T13:45:13;3.20;;;1.20;;
4074;SDS011;2052;53.522;9.806;2023-07-20T13:47:41;1.50;;;0.90;;
4074;SDS011;2052;53.522;9.806;2023-07-20T13:50:07;2.90;;;1.17;;
4074;SDS011;2052;53.522;9.806;2023-07-20T13:52:35;2.50;;;0.90;;
4074;SDS011;2052;53.522;9.806;2023-07-20T13:55:02;1.47;;;1.20;;
4074;SDS011;2052;53.522;9.806;2023-07-20T13:57:35;9.73;;;1.50;;
4074;SDS011;2052;53.522;9.806;2023-07-20T14:02:57;1.63;;;0.90;;
4074;SDS011;2052;53.522;9.806;2023-07-20T14:05:24;2.60;;;1.50;;
4074;SDS011;2052;53.522;9.806;2023-07-20T14:07:50;1.10;;;1.00;;
4074;SDS011;2052;53.522;9.806;2023-07-20T14:10:17;1.20;;;0.90;;
4074;SDS011;2052;53.522;9.806;2023-07-20T14:12:44;3.27;;;1.67;;
4074;SDS011;2052;53.522;9.806;2023-07-20T14:15:11;5.33;;;1.10;;
4074;SDS011;2052;53.522;9.806;2023-07-20T14:17:39;3.57;;;0.80;;
4074;SDS011;2052;53.522;9.806;2023-07-20T14:20:07;1.90;;;1.07;;
4074;SDS011;2052;53.522;9.806;2023-07-20T14:22:34;0.93;;;0.70;;
4074;SDS011;2052;53.522;9.806;2023-07-20T14:25:02;1.63;;;0.97;;
4074;SDS011;2052;53.522;9.806;2023-07-20T14:27:29;4.10;;;1.10;;
4074;SDS011;2052;53.522;9.806;2023-07-20T14:29:56;3.57;;;1.20;;
4074;SDS011;2052;53.522;9.806;2023-07-20T14:32:23;4.03;;;1.20;;
4074;SDS011;2052;53.522;9.806;2023-07-20T14:35:03;1.63;;;1.10;;
4074;SDS011;2052;53.522;9.806;2023-07-20T14:37:31;2.37;;;1.20;;
4074;SDS011;2052;53.522;9.806;2023-07-20T14:39:58;3.73;;;0.97;;
4074;SDS011;2052;53.522;9.806;2023-07-20T14:42:25;2.30;;;0.90;;
4074;SDS011;2052;53.522;9.806;2023-07-20T14:44:51;2.83;;;1.33;;
4074;SDS011;2052;53.522;9.806;2023-07-20T14:47:18;2.17;;;1.20;;
4074;SDS011;2052;53.522;9.806;2023-07-20T14:49:44;1.30;;;1.20;;
4074;SDS011;2052;53.522;9.806;2023-07-20T14:52:12;5.50;;;1.57;;
4074;SDS011;2052;53.522;9.806;2023-07-20T14:54:39;2.73;;;1.33;;
4074;SDS011;2052;53.522;9.806;2023-07-20T14:57:06;3.13;;;1.40;;
4074;SDS011;2052;53.522;9.806;2023-07-20T14:59:38;3.83;;;1.27;;
4074;SDS011;2052;53.522;9.806;2023-07-20T15:02:05;6.43;;;1.37;;
4074;SDS011;2052;53.522;9.806;2023-07-20T15:04:35;10.00;;;1.90;;
4074;SDS011;2052;53.522;9.806;2023-07-20T15:07:13;4.23;;;1.20;;
4074;SDS011;2052;53.522;9.806;2023-07-20T15:09:39;2.07;;;1.20;;
4074;SDS011;2052;53.522;9.806;2023-07-20T15:12:08;4.70;;;1.40;;
4074;SDS011;2052;53.522;9.806;2023-07-20T15:14:35;2.40;;;1.50;;
4074;SDS011;2052;53.522;9.806;2023-07-20T15:17:05;7.80;;;1.70;;
4074;SDS011;2052;53.522;9.806;2023-07-20T15:19:32;4.10;;;1.30;;
4074;SDS011;2052;53.522;9.806;2023-07-20T15:21:59;1.33;;;1.10;;
4074;SDS011;2052;53.522;9.806;2023-07-20T15:24:28;1.50;;;1.40;;
4074;SDS011;2052;53.522;9.806;2023-07-20T15:26:58;1.20;;;1.10;;